createdAt,value
2018-12-13T00:00:12.152Z,101034.72
2018-12-13T00:05:14.653Z,101030.98
2018-12-13T00:10:17.165Z,101028.98
2018-12-13T00:15:21.552Z,101023.63
2018-12-13T00:20:24.044Z,101026.20
2018-12-13T00:25:26.512Z,101024.45
2018-12-13T00:30:28.981Z,101024.81
2018-12-13T00:35:31.444Z,101019.27
2018-12-13T00:40:33.909Z,101008.02
2018-12-13T00:45:36.373Z,101001.08
2018-12-13T00:50:38.849Z,101005.61
2018-12-13T00:55:41.326Z,101006.99
2018-12-13T01:00:43.792Z,100998.08
2018-12-13T01:05:46.290Z,100998.67
2018-12-13T01:10:48.785Z,101001.25
2018-12-13T01:15:51.248Z,100999.70
2018-12-13T01:20:53.738Z,101008.02
2018-12-13T01:25:56.836Z,101006.42
2018-12-13T01:30:59.296Z,100999.69
2018-12-13T01:36:01.760Z,101002.48
2018-12-13T01:41:04.296Z,100995.53
2018-12-13T01:46:06.911Z,100996.52
2018-12-13T01:51:09.434Z,100988.20
2018-12-13T01:56:11.924Z,100985.04
2018-12-13T02:01:14.473Z,100980.09
2018-12-13T02:06:17.159Z,100973.75
2018-12-13T02:11:19.861Z,100983.05
2018-12-13T02:16:22.470Z,100971.97
2018-12-13T02:21:24.951Z,100978.50
2018-12-13T02:26:28.104Z,100969.61
2018-12-13T02:31:30.793Z,100967.83
2018-12-13T02:36:33.286Z,100962.45
2018-12-13T02:41:35.765Z,100952.19
2018-12-13T02:46:38.237Z,100952.59
2018-12-13T02:51:40.692Z,100943.67
2018-12-13T02:56:43.320Z,100949.61
2018-12-13T03:01:46.294Z,100951.57
2018-12-13T03:06:48.771Z,100951.37
2018-12-13T03:11:52.083Z,100947.41
2018-12-13T03:16:54.717Z,100944.86
2018-12-13T03:21:57.510Z,100939.31
2018-12-13T03:26:59.968Z,100937.34
2018-12-13T03:32:02.579Z,100930.02
2018-12-13T03:37:05.191Z,100931.00
2018-12-13T03:42:07.896Z,100931.39
2018-12-13T03:47:10.740Z,100925.84
2018-12-13T03:52:13.225Z,100919.13
2018-12-13T03:57:15.770Z,100924.86
2018-12-13T04:02:18.469Z,100912.98
2018-12-13T04:07:27.624Z,100907.84
2018-12-13T04:12:25.455Z,100906.05
2018-12-13T04:17:27.962Z,100909.81
2018-12-13T04:22:30.507Z,100917.14
2018-12-13T04:27:32.973Z,100903.48
2018-12-13T04:32:36.369Z,100904.86
2018-12-13T04:37:39.105Z,100906.05
2018-12-13T04:42:41.568Z,100906.25
2018-12-13T04:47:44.044Z,100896.75
2018-12-13T04:52:46.548Z,100895.55
2018-12-13T04:57:49.030Z,100896.35
2018-12-13T05:02:51.744Z,100900.11
2018-12-13T05:07:54.293Z,100889.62
2018-12-13T05:12:56.808Z,100882.49
2018-12-13T05:17:59.330Z,100882.69
2018-12-13T05:23:01.831Z,100882.09
2018-12-13T05:28:04.356Z,100885.89
2018-12-13T05:33:06.904Z,100884.08
2018-12-13T05:38:10.080Z,100889.62
2018-12-13T05:43:12.728Z,100886.08
2018-12-13T05:48:15.188Z,100879.16
2018-12-13T05:53:18.517Z,100888.06
2018-12-13T05:58:21.014Z,100887.64
2018-12-13T06:03:23.486Z,100892.59
2018-12-13T06:08:25.999Z,100893.02
2018-12-13T06:13:28.510Z,100893.02
2018-12-13T06:18:30.986Z,100890.24
2018-12-13T06:23:33.462Z,100880.94
2018-12-13T06:28:35.941Z,100884.30
2018-12-13T06:33:38.474Z,100888.06
2018-12-13T06:38:41.026Z,100893.21
2018-12-13T06:43:44.395Z,100888.66
2018-12-13T06:48:46.860Z,100896.77
2018-12-13T06:53:49.323Z,100898.75
2018-12-13T06:58:51.780Z,100899.55
2018-12-13T07:03:55.070Z,100895.19
2018-12-13T07:08:57.564Z,100887.27
2018-12-13T07:14:00.060Z,100884.30
2018-12-13T07:19:02.544Z,100886.67
2018-12-13T07:24:05.041Z,100882.52
2018-12-13T07:29:07.504Z,100886.28
2018-12-13T07:34:09.975Z,100890.84
2018-12-13T07:39:12.481Z,100879.19
2018-12-13T07:44:14.985Z,100882.35
2018-12-13T07:49:18.128Z,100880.96
2018-12-13T07:54:20.600Z,100878.42
2018-12-13T07:59:23.090Z,100878.98
2018-12-13T08:04:25.560Z,100867.44
2018-12-13T08:09:28.040Z,100877.28
2018-12-13T08:14:30.545Z,100867.46
2018-12-13T08:19:33.044Z,100866.02
2018-12-13T08:24:35.521Z,100863.48
2018-12-13T08:29:38.069Z,100872.98
2018-12-13T08:34:40.541Z,100867.04
2018-12-13T08:39:43.033Z,100866.26
2018-12-13T08:44:45.695Z,100865.66
2018-12-13T08:49:48.185Z,100862.69
2018-12-13T08:54:50.660Z,100857.53
2018-12-13T08:59:53.137Z,100860.12
2018-12-13T09:04:55.660Z,100853.38
2018-12-13T09:09:58.116Z,100849.39
2018-12-13T09:15:00.600Z,100853.20
2018-12-13T09:20:04.273Z,100850.00
2018-12-13T09:25:06.809Z,100846.64
2018-12-13T09:30:09.343Z,100846.03
2018-12-13T09:35:11.817Z,100850.78
2018-12-13T09:40:15.201Z,100847.81
2018-12-13T09:45:17.744Z,100839.28
2018-12-13T09:50:20.545Z,100834.92
2018-12-13T09:55:23.018Z,100833.34
2018-12-13T10:00:25.704Z,100827.02
2018-12-13T10:05:28.253Z,100822.27
2018-12-13T10:10:30.757Z,100810.36
2018-12-13T10:15:33.220Z,100806.23
2018-12-13T10:20:35.724Z,100804.84
2018-12-13T10:25:38.219Z,100810.95
2018-12-13T10:30:40.718Z,100809.37
2018-12-13T10:35:43.476Z,100806.00
2018-12-13T10:40:46.008Z,100801.45
2018-12-13T10:45:48.764Z,100803.03
2018-12-13T10:50:51.228Z,100802.64
2018-12-13T10:55:53.692Z,100795.32
2018-12-13T11:01:01.758Z,100787.01
2018-12-13T11:06:04.340Z,100782.06
2018-12-13T11:11:07.040Z,100787.20
2018-12-13T11:16:09.541Z,100779.69
2018-12-13T11:21:17.484Z,100772.20
2018-12-13T11:26:17.501Z,100766.26
2018-12-13T11:31:19.993Z,100762.27
2018-12-13T11:36:22.597Z,100757.72
2018-12-13T11:41:25.093Z,100754.95
2018-12-13T11:46:27.566Z,100752.17
2018-12-13T11:51:30.037Z,100743.86
2018-12-13T11:56:32.547Z,100750.00
2018-12-13T12:01:35.401Z,100747.45
2018-12-13T12:06:37.876Z,100749.20
2018-12-13T12:11:40.349Z,100749.80
2018-12-13T12:16:42.844Z,100737.77
2018-12-13T12:21:45.327Z,100739.31
2018-12-13T12:26:47.852Z,100744.09
2018-12-13T12:31:50.581Z,100737.77
2018-12-13T12:36:53.053Z,100730.84
2018-12-13T12:41:55.516Z,100736.74
2018-12-13T12:46:58.200Z,100729.81
2018-12-13T12:52:00.697Z,100725.10
2018-12-13T12:57:03.303Z,100725.89
2018-12-13T13:02:05.802Z,100730.24
2018-12-13T13:07:08.293Z,100719.16
2018-12-13T13:12:10.959Z,100723.31
2018-12-13T13:17:13.465Z,100713.03
2018-12-13T13:22:15.929Z,100710.46
2018-12-13T13:27:18.417Z,100705.12
2018-12-13T13:32:20.986Z,100713.62
2018-12-13T13:37:23.459Z,100708.88
2018-12-13T13:42:25.953Z,100710.45
2018-12-13T13:47:28.425Z,100704.91
2018-12-13T13:52:30.926Z,100705.52
2018-12-13T13:57:33.395Z,100713.62
2018-12-13T14:02:35.866Z,100715.80
2018-12-13T14:07:38.694Z,100705.12
2018-12-13T14:12:41.156Z,100710.46
2018-12-13T14:17:43.653Z,100714.61
2018-12-13T14:22:46.473Z,100715.21
2018-12-13T14:27:48.964Z,100711.45
2018-12-13T14:32:51.432Z,100713.19
2018-12-13T14:37:53.926Z,100721.14
2018-12-13T14:42:56.397Z,100711.45
2018-12-13T14:47:59.089Z,100719.52
2018-12-13T14:53:01.560Z,100713.59
2018-12-13T14:58:04.062Z,100721.50
2018-12-13T15:03:06.521Z,100717.14
2018-12-13T15:08:09.765Z,100714.97
2018-12-13T15:13:12.410Z,100712.55
2018-12-13T15:18:15.276Z,100710.97
2018-12-13T15:23:17.958Z,100710.38
2018-12-13T15:28:20.429Z,100714.49
2018-12-13T15:33:22.907Z,100719.83
2018-12-13T15:38:25.470Z,100717.22
2018-12-13T15:43:27.996Z,100719.39
2018-12-13T15:48:30.608Z,100716.86
2018-12-13T15:53:33.190Z,100715.88
2018-12-13T15:58:35.896Z,100709.97
2018-12-13T16:03:38.365Z,100718.48
2018-12-13T16:08:40.848Z,100708.74
2018-12-13T16:13:43.641Z,100719.39
2018-12-13T16:18:46.132Z,100723.00
2018-12-13T16:23:48.603Z,100725.13
2018-12-13T16:28:51.068Z,100719.34
2018-12-13T16:33:53.538Z,100719.30
2018-12-13T16:38:56.065Z,100719.30
2018-12-13T16:43:58.541Z,100712.95
2018-12-13T16:49:01.004Z,100719.09
2018-12-13T16:54:03.576Z,100716.71
2018-12-13T16:59:06.081Z,100722.86
2018-12-13T17:04:08.583Z,100719.29
2018-12-13T17:09:11.113Z,100717.91
2018-12-13T17:14:13.577Z,100721.87
2018-12-13T17:19:16.053Z,100718.55
2018-12-13T17:24:18.645Z,100717.41
2018-12-13T17:29:21.885Z,100721.21
2018-12-13T17:34:24.363Z,100720.22
2018-12-13T17:39:26.839Z,100721.22
2018-12-13T17:44:29.338Z,100717.41
2018-12-13T17:49:31.837Z,100711.87
2018-12-13T17:54:34.313Z,100721.97
2018-12-13T17:59:36.892Z,100720.78
2018-12-13T18:04:39.362Z,100714.04
2018-12-13T18:09:41.862Z,100715.38
2018-12-13T18:14:44.361Z,100717.96
2018-12-13T18:19:46.853Z,100720.53
2018-12-13T18:24:49.513Z,100722.55
2018-12-13T18:29:51.990Z,100726.28
2018-12-13T18:34:54.490Z,100721.33
2018-12-13T18:39:56.957Z,100725.92
2018-12-13T18:44:59.460Z,100726.48
2018-12-13T18:50:01.943Z,100718.56
2018-12-13T18:55:05.300Z,100729.25
2018-12-13T19:00:07.925Z,100725.48
2018-12-13T19:05:11.360Z,100726.52
2018-12-13T19:10:13.837Z,100726.28
2018-12-13T19:15:16.337Z,100715.63
2018-12-13T19:20:18.805Z,100732.42
2018-12-13T19:25:21.274Z,100735.02
2018-12-13T19:30:23.748Z,100731.82
2018-12-13T19:35:26.220Z,100732.85
2018-12-13T19:40:28.717Z,100741.95
2018-12-13T19:45:31.472Z,100736.61
2018-12-13T19:50:34.097Z,100742.35
2018-12-13T19:55:37.334Z,100738.78
2018-12-13T20:00:39.822Z,100742.95
2018-12-13T20:05:42.323Z,100743.15
2018-12-13T20:10:44.797Z,100740.97
2018-12-13T20:15:47.278Z,100752.41
2018-12-13T20:20:49.749Z,100741.95
2018-12-13T20:25:52.217Z,100751.27
2018-12-13T20:30:54.716Z,100750.91
2018-12-13T20:35:57.412Z,100752.69
2018-12-13T20:41:01.113Z,100752.69
2018-12-13T20:46:03.773Z,100764.92
2018-12-13T20:51:06.304Z,100755.37
2018-12-13T20:56:08.880Z,100765.67
2018-12-13T21:01:11.408Z,100758.75
2018-12-13T21:06:13.923Z,100757.36
2018-12-13T21:11:16.605Z,100757.95
2018-12-13T21:16:19.081Z,100760.13
2018-12-13T21:21:21.553Z,100763.50
2018-12-13T21:26:24.021Z,100758.95
2018-12-13T21:31:26.494Z,100755.81
2018-12-13T21:36:29.161Z,100761.75
2018-12-13T21:41:31.657Z,100760.96
2018-12-13T21:46:34.180Z,100761.95
2018-12-13T21:51:36.688Z,100761.36
2018-12-13T21:56:39.382Z,100752.45
2018-12-13T22:01:41.897Z,100750.27
2018-12-13T22:06:44.425Z,100751.66
2018-12-13T22:11:47.012Z,100753.44
2018-12-13T22:16:49.553Z,100756.21
2018-12-13T22:21:52.097Z,100762.55
2018-12-13T22:26:54.693Z,100763.34
2018-12-13T22:31:57.437Z,100762.55
2018-12-13T22:37:00.165Z,100759.58
2018-12-13T22:42:02.745Z,100758.75
2018-12-13T22:47:05.313Z,100756.41
2018-12-13T22:52:07.874Z,100754.59
2018-12-13T22:57:10.469Z,100753.99
2018-12-13T23:02:12.985Z,100758.19
2018-12-13T23:07:15.548Z,100752.84
2018-12-13T23:12:18.093Z,100757.20
2018-12-13T23:17:21.801Z,100757.00
2018-12-13T23:22:24.324Z,100752.84
2018-12-13T23:27:26.852Z,100766.90
2018-12-13T23:32:29.440Z,100754.23
2018-12-13T23:37:31.935Z,100754.63
2018-12-13T23:42:34.533Z,100753.80
2018-12-13T23:47:37.121Z,100756.21
2018-12-13T23:52:39.623Z,100756.02
2018-12-13T23:57:42.162Z,100756.80
